Time;durP1;ratioP1;P1;durP2;ratioP2;P2;SDS_P1;SDS_P2;PMS_P1;PMS_P2;Temp;Humidity;BMP_temperature;BMP_pressure;BME280_temperature;BME280_humidity;BME280_pressure;Samples;Min_cycle;Max_cycle;Signal;HPM_P1;HPM_P2
2022/03/26 00:01:37;;;;;;;35.10;24.00;;;;;;;;;;5072395;28;20184;-64
2022/03/26 00:04:03;;;;;;;37.87;24.60;;;;;;;;;;5074058;28;20685;-65
2022/03/26 00:06:29;;;;;;;41.63;27.00;;;7.10;99.90;;;;;;5073187;28;20543;-64
2022/03/26 00:08:55;;;;;;;38.17;24.63;;;;;;;;;;5073651;28;20196;-65
2022/03/26 00:11:21;;;;;;;39.27;26.20;;;;;;;;;;5073808;28;20184;-64
2022/03/26 00:13:47;;;;;;;41.73;25.73;;;;;;;;;;5073422;28;20260;-65
2022/03/26 00:16:13;;;;;;;44.60;24.90;;;6.80;99.90;;;;;;5073308;28;20480;-66
2022/03/26 00:18:38;;;;;;;47.77;26.37;;;6.70;99.90;;;;;;5073672;28;20671;-65
2022/03/26 00:21:05;;;;;;;37.93;23.20;;;6.50;99.90;;;;;;5073831;28;20249;-65
2022/03/26 00:23:31;;;;;;;42.80;25.83;;;6.40;99.90;;;;;;5073464;28;20210;-66
2022/03/26 00:25:59;;;;;;;41.87;24.67;;;6.60;99.90;;;;;;5073336;28;20615;-66
2022/03/26 00:28:25;;;;;;;36.10;25.20;;;6.60;99.90;;;;;;5073412;28;20182;-65
2022/03/26 00:30:51;;;;;;;45.73;25.57;;;6.40;99.90;;;;;;5072743;28;20255;-65
2022/03/26 00:33:17;;;;;;;47.07;27.27;;;6.50;99.90;;;;;;5073758;28;20178;-65
2022/03/26 00:35:43;;;;;;;47.57;26.63;;;6.30;99.90;;;;;;5072864;28;20198;-65
2022/03/26 00:38:09;;;;;;;40.90;25.37;;;6.40;99.90;;;;;;5073212;28;20216;-65
2022/03/26 00:40:35;;;;;;;45.03;25.80;;;6.90;99.90;;;;;;5073333;28;20170;-65
2022/03/26 00:43:01;;;;;;;40.57;24.73;;;6.50;99.90;;;;;;5072996;28;20190;-65
2022/03/26 00:45:29;;;;;;;38.60;22.33;;;6.40;99.90;;;;;;5073093;28;20223;-65
2022/03/26 00:47:55;;;;;;;40.53;24.57;;;6.30;99.90;;;;;;5073204;28;20205;-65
2022/03/26 00:50:21;;;;;;;40.67;24.03;;;6.50;99.90;;;;;;5073182;28;20283;-65
2022/03/26 00:52:47;;;;;;;39.03;25.77;;;6.80;99.90;;;;;;5072842;28;20213;-65
2022/03/26 00:55:13;;;;;;;33.53;23.53;;;6.60;99.90;;;;;;5072819;28;20538;-65
2022/03/26 00:57:39;;;;;;;33.80;23.23;;;;;;;;;;5072757;28;20236;-64
2022/03/26 01:00:06;;;;;;;39.93;23.73;;;6.50;99.90;;;;;;5072940;28;20185;-65
2022/03/26 01:02:32;;;;;;;40.23;25.57;;;6.40;99.90;;;;;;5072676;28;20605;-66
2022/03/26 01:04:59;;;;;;;39.97;23.30;;;6.70;99.90;;;;;;5072575;28;20198;-65
2022/03/26 01:07:26;;;;;;;40.87;23.87;;;6.30;99.90;;;;;;5072809;28;20193;-65
2022/03/26 01:09:53;;;;;;;38.57;23.40;;;6.30;99.90;;;;;;5072837;28;20240;-65
2022/03/26 01:12:18;;;;;;;43.00;25.80;;;6.40;99.90;;;;;;5072557;28;20642;-65
2022/03/26 01:14:44;;;;;;;41.43;24.57;;;6.20;99.90;;;;;;5071465;28;20198;-65
2022/03/26 01:17:10;;;;;;;38.53;24.03;;;6.20;99.90;;;;;;5072603;28;20182;-65
2022/03/26 01:19:36;;;;;;;37.07;23.10;;;;;;;;;;5072636;28;20554;-65
2022/03/26 01:22:01;;;;;;;40.80;24.30;;;6.30;99.90;;;;;;5072269;28;20639;-65
2022/03/26 01:24:28;;;;;;;42.93;24.93;;;;;;;;;;5072292;28;20201;-65
2022/03/26 01:26:54;;;;;;;38.43;26.13;;;;;;;;;;5071961;28;20189;-64
2022/03/26 01:29:20;;;;;;;37.73;23.07;;;;;;;;;;5072285;28;20227;-65
2022/03/26 01:31:46;;;;;;;39.57;24.50;;;;;;;;;;5072198;28;20636;-64
2022/03/26 01:34:11;;;;;;;39.37;24.40;;;5.90;99.90;;;;;;5072300;28;20278;-65
2022/03/26 01:36:37;;;;;;;38.17;23.97;;;;;;;;;;5071425;28;20533;-64
2022/03/26 01:39:03;;;;;;;46.03;26.00;;;6.00;99.90;;;;;;5072535;28;20213;-66
2022/03/26 01:41:29;;;;;;;43.23;24.97;;;6.00;99.90;;;;;;5072072;28;20598;-65
2022/03/26 01:43:54;;;;;;;43.87;25.50;;;6.50;99.90;;;;;;5072023;28;20194;-66
2022/03/26 01:46:20;;;;;;;41.13;23.80;;;6.20;99.90;;;;;;5070381;28;20174;-65
2022/03/26 01:48:48;;;;;;;37.50;24.03;;;6.00;99.90;;;;;;5068276;28;20205;-65
2022/03/26 01:51:14;;;;;;;48.40;24.50;;;;;;;;;;5071921;28;20204;-64
2022/03/26 01:53:52;;;;;;;40.13;25.33;;;5.90;99.90;;;;;;5072016;28;20559;-65
2022/03/26 01:56:19;;;;;;;38.93;24.87;;;5.90;99.90;;;;;;5071608;28;20186;-65
2022/03/26 01:58:45;;;;;;;41.63;26.47;;;5.70;99.90;;;;;;5071972;28;20659;-65
2022/03/26 02:01:11;;;;;;;49.40;24.27;;;5.40;99.90;;;;;;5071778;28;20269;-65
2022/03/26 02:03:37;;;;;;;46.63;26.30;;;5.60;99.90;;;;;;5071880;28;20209;-65
2022/03/26 02:06:03;;;;;;;48.27;25.97;;;5.50;99.90;;;;;;5071146;28;20225;-66
2022/03/26 02:08:29;;;;;;;47.17;25.30;;;5.50;99.90;;;;;;5071637;28;20699;-65
2022/03/26 02:10:55;;;;;;;36.60;24.60;;;;;;;;;;5071827;28;20233;-65
2022/03/26 02:13:21;;;;;;;38.27;23.40;;;5.40;99.90;;;;;;5071813;28;20205;-66
2022/03/26 02:15:47;;;;;;;37.67;24.57;;;5.40;99.90;;;;;;5071514;28;20625;-65
2022/03/26 02:18:13;;;;;;;44.97;25.73;;;;;;;;;;5071558;28;20178;-63
2022/03/26 02:20:39;;;;;;;41.70;25.17;;;5.40;99.90;;;;;;5071928;28;20185;-65
2022/03/26 02:23:05;;;;;;;43.60;24.00;;;5.90;99.90;;;;;;5071592;28;20182;-65
2022/03/26 02:25:31;;;;;;;38.83;24.33;;;;;;;;;;5071206;28;20256;-64
2022/03/26 02:27:57;;;;;;;38.77;24.77;;;;;;;;;;5071120;28;20265;-64
2022/03/26 02:30:23;;;;;;;40.87;27.30;;;5.60;99.90;;;;;;5071559;28;20214;-66
2022/03/26 02:32:48;;;;;;;41.30;26.10;;;5.50;99.90;;;;;;5071388;28;20659;-65
2022/03/26 02:35:14;;;;;;;48.20;27.00;;;5.50;99.90;;;;;;5071286;28;20208;-66
2022/03/26 02:37:40;;;;;;;46.33;26.47;;;;;;;;;;5071270;28;20181;-65
2022/03/26 02:40:07;;;;;;;48.40;29.30;;;5.30;99.90;;;;;;5071673;28;20189;-65
2022/03/26 02:42:36;;;;;;;45.93;25.53;;;5.30;99.90;;;;;;5071970;28;20539;-64
2022/03/26 02:45:03;;;;;;;47.10;26.43;;;5.20;99.90;;;;;;5071199;28;20198;-66
2022/03/26 02:47:29;;;;;;;45.00;26.90;;;5.50;99.90;;;;;;5071422;28;20596;-66
2022/03/26 02:49:55;;;;;;;38.63;26.20;;;5.30;99.90;;;;;;5071839;28;20205;-66
2022/03/26 02:52:22;;;;;;;45.27;26.73;;;5.20;99.90;;;;;;5071086;28;20202;-66
2022/03/26 02:54:48;;;;;;;46.43;30.13;;;;;;;;;;5071124;28;20675;-65
2022/03/26 02:57:14;;;;;;;54.80;28.23;;;;;;;;;;5071339;28;20210;-65
2022/03/26 02:59:40;;;;;;;53.87;29.00;;;;;;;;;;5071237;28;20235;-65
2022/03/26 03:02:09;;;;;;;51.33;27.90;;;;;;;;;;5071295;28;20253;-65
2022/03/26 03:04:35;;;;;;;49.33;28.37;;;5.10;99.90;;;;;;5070982;28;20221;-66
2022/03/26 03:07:02;;;;;;;46.20;27.83;;;4.90;99.90;;;;;;5071402;28;20174;-65
2022/03/26 03:09:28;;;;;;;57.53;29.23;;;4.80;99.90;;;;;;5071079;28;20248;-66
2022/03/26 03:11:54;;;;;;;59.00;28.90;;;;;;;;;;5070516;28;20183;-65
2022/03/26 03:14:21;;;;;;;52.43;28.97;;;;;;;;;;5070465;28;20190;-64
2022/03/26 03:16:47;;;;;;;47.63;27.60;;;;;;;;;;5069670;28;20174;-65
2022/03/26 03:19:13;;;;;;;53.30;29.33;;;;;;;;;;5071101;28;20228;-65
2022/03/26 03:21:39;;;;;;;45.33;27.70;;;4.80;99.90;;;;;;5071387;28;20170;-66
2022/03/26 03:24:05;;;;;;;52.47;28.63;;;;;;;;;;5071339;28;20202;-64
2022/03/26 03:26:31;;;;;;;56.80;31.93;;;;;;;;;;5070637;28;20182;-65
2022/03/26 03:28:59;;;;;;;45.93;27.90;;;;;;;;;;5070881;28;20272;-64
2022/03/26 03:31:25;;;;;;;48.20;27.63;;;5.00;99.90;;;;;;5070932;28;20179;-64
2022/03/26 03:33:51;;;;;;;48.80;29.73;;;4.50;99.90;;;;;;5071055;28;20574;-65
2022/03/26 03:36:17;;;;;;;42.40;27.60;;;4.80;99.90;;;;;;5070695;28;20178;-65
2022/03/26 03:38:43;;;;;;;47.57;28.10;;;4.60;99.90;;;;;;5074737;28;20588;-65
2022/03/26 03:41:09;;;;;;;56.33;27.83;;;4.80;99.90;;;;;;5074534;28;20178;-65
2022/03/26 03:43:35;;;;;;;53.60;29.43;;;;;;;;;;5074580;28;20193;-65
2022/03/26 03:46:01;;;;;;;46.00;28.53;;;4.60;99.90;;;;;;5073833;28;20594;-66
2022/03/26 03:48:26;;;;;;;48.30;28.33;;;4.30;99.90;;;;;;5074493;28;20208;-66
2022/03/26 03:50:52;;;;;;;48.30;28.73;;;4.60;99.90;;;;;;5072656;28;20263;-65
2022/03/26 03:53:18;;;;;;;51.00;26.93;;;;;;;;;;5074398;28;20199;-65
2022/03/26 03:55:44;;;;;;;57.43;30.83;;;4.40;99.90;;;;;;5074216;28;20233;-66
2022/03/26 03:58:10;;;;;;;48.17;26.60;;;;;;;;;;5074208;28;20257;-65
2022/03/26 04:00:35;;;;;;;54.37;28.27;;;;;;;;;;5073662;28;20703;-65
2022/03/26 04:03:01;;;;;;;49.07;29.43;;;4.70;99.90;;;;;;5074324;28;20182;-66
2022/03/26 04:05:27;;;;;;;47.50;29.27;;;4.50;99.90;;;;;;5073578;28;20209;-66
2022/03/26 04:07:52;;;;;;;56.03;29.33;;;4.60;99.90;;;;;;5073787;28;20174;-66
2022/03/26 04:10:18;;;;;;;49.37;30.30;;;4.60;99.90;;;;;;5073410;28;20205;-66
2022/03/26 04:12:44;;;;;;;52.73;29.67;;;4.60;99.90;;;;;;5074001;28;20210;-65
2022/03/26 04:15:11;;;;;;;50.67;28.27;;;4.20;99.90;;;;;;5073517;28;20193;-66
2022/03/26 04:17:37;;;;;;;51.53;29.50;;;4.90;99.90;;;;;;5073585;28;20544;-65
2022/03/26 04:20:08;;;;;;;45.83;28.03;;;4.70;99.90;;;;;;5073420;28;20189;-65
2022/03/26 04:22:37;;;;;;;44.47;28.73;;;4.70;99.90;;;;;;5073620;28;20185;-66
2022/03/26 04:25:04;;;;;;;51.00;29.13;;;4.70;99.90;;;;;;5073381;28;20198;-65
2022/03/26 04:27:30;;;;;;;50.83;29.67;;;4.60;99.90;;;;;;5053691;28;20654;-66
2022/03/26 04:29:55;;;;;;;49.20;33.07;;;4.70;99.90;;;;;;5070160;28;20206;-65
2022/03/26 04:32:21;;;;;;;46.93;28.77;;;4.30;99.90;;;;;;5073560;28;20166;-65
2022/03/26 04:34:47;;;;;;;56.10;29.20;;;4.50;99.90;;;;;;5072954;28;20232;-65
2022/03/26 04:37:13;;;;;;;47.93;29.33;;;;;;;;;;5073127;28;20205;-69
2022/03/26 04:39:39;;;;;;;59.20;30.37;;;;;;;;;;5073256;28;20231;-65
2022/03/26 04:42:05;;;;;;;49.83;30.23;;;;;;;;;;5073384;28;20607;-65
2022/03/26 04:44:31;;;;;;;60.30;30.60;;;;;;;;;;5072360;28;20202;-64
2022/03/26 04:46:57;;;;;;;52.17;29.77;;;;;;;;;;5073701;28;20261;-63
2022/03/26 04:49:23;;;;;;;57.20;28.27;;;4.00;99.90;;;;;;5073552;28;20264;-64
2022/03/26 04:51:49;;;;;;;50.13;28.07;;;;;;;;;;5073341;28;20212;-65
2022/03/26 04:54:15;;;;;;;52.40;29.23;;;2.40;99.90;;;;;;5072618;28;20193;-65
2022/03/26 04:56:41;;;;;;;56.70;30.10;;;;;;;;;;5073035;28;20573;-63
2022/03/26 04:59:07;;;;;;;53.97;30.03;;;;;;;;;;5073052;28;20317;-64
2022/03/26 05:01:33;;;;;;;53.27;31.37;;;;;;;;;;5073209;28;20188;-66
2022/03/26 05:03:59;;;;;;;54.47;32.27;;;3.60;99.90;;;;;;5072637;28;20667;-65
2022/03/26 05:06:24;;;;;;;56.80;30.57;;;3.50;99.90;;;;;;5072632;28;20174;-65
2022/03/26 05:08:50;;;;;;;59.20;31.10;;;3.70;99.90;;;;;;5072896;28;20190;-65
2022/03/26 05:11:16;;;;;;;48.07;29.07;;;3.10;99.90;;;;;;5072846;28;20257;-65
2022/03/26 05:13:42;;;;;;;45.67;29.63;;;3.50;99.90;;;;;;5072837;28;20274;-66
2022/03/26 05:16:08;;;;;;;54.00;30.17;;;3.40;99.90;;;;;;5072365;28;20193;-65
2022/03/26 05:18:35;;;;;;;54.03;30.97;;;3.50;99.90;;;;;;5072768;28;20208;-65
2022/03/26 05:21:01;;;;;;;54.03;30.43;;;;;;;;;;5072116;28;20182;-65
2022/03/26 05:23:27;;;;;;;55.90;32.07;;;3.60;99.90;;;;;;5072445;28;20182;-65
2022/03/26 05:25:53;;;;;;;59.07;30.27;;;;;;;;;;5072253;28;20186;-65
2022/03/26 05:28:19;;;;;;;46.07;28.87;;;;;;;;;;5072127;28;20212;-66
2022/03/26 05:30:49;;;;;;;55.13;29.53;;;3.50;99.90;;;;;;5072483;28;20202;-66
2022/03/26 05:33:15;;;;;;;58.93;32.53;;;;;;;;;;5072420;28;20220;-66
2022/03/26 05:35:41;;;;;;;47.80;28.30;;;;;;;;;;5071775;28;20229;-64
2022/03/26 05:38:06;;;;;;;54.27;29.90;;;3.50;99.90;;;;;;5071941;28;20239;-65
2022/03/26 05:40:32;;;;;;;50.67;29.07;;;;;;;;;;5072060;28;20189;-64
2022/03/26 05:42:58;;;;;;;52.33;28.70;;;;;;;;;;5071897;28;20674;-64
2022/03/26 05:45:24;;;;;;;50.50;30.03;;;;;;;;;;5071661;28;20198;-64
2022/03/26 05:47:55;;;;;;;53.10;31.37;;;3.70;99.90;;;;;;5071503;28;20182;-64
2022/03/26 05:50:21;;;;;;;57.60;32.40;;;3.80;99.90;;;;;;5071898;28;20785;-64
2022/03/26 05:52:47;;;;;;;56.33;32.20;;;;;;;;;;5071698;28;20260;-65
2022/03/26 05:55:13;;;;;;;60.20;30.10;;;;;;;;;;5071559;28;20202;-65
2022/03/26 05:57:39;;;;;;;59.47;32.17;;;;;;;;;;5071712;28;20181;-64
2022/03/26 06:00:06;;;;;;;59.53;33.33;;;4.40;99.90;;;;;;5071506;28;20174;-64
2022/03/26 06:02:31;;;;;;;61.20;31.27;;;4.20;99.90;;;;;;5071644;28;20615;-65
2022/03/26 06:04:57;;;;;;;55.40;30.83;;;;;;;;;;5071324;28;20241;-64
2022/03/26 06:07:23;;;;;;;66.63;34.27;;;;;;;;;;5071590;28;20180;-64
2022/03/26 06:09:49;;;;;;;67.83;36.57;;;;;;;;;;5071648;28;20674;-64
2022/03/26 06:12:16;;;;;;;58.40;32.67;;;;;;;;;;5071503;28;20185;-64
2022/03/26 06:14:41;;;;;;;56.73;32.97;;;4.40;99.90;;;;;;5071313;28;20204;-64
2022/03/26 06:17:07;;;;;;;60.20;33.10;;;;;;;;;;5071460;28;20174;-63
2022/03/26 06:19:33;;;;;;;54.90;31.33;;;;;;;;;;5071857;28;20213;-63
2022/03/26 06:21:59;;;;;;;64.00;32.13;;;;;;;;;;5071369;28;20651;-63
2022/03/26 06:24:25;;;;;;;57.47;31.93;;;;;;;;;;5071714;28;20198;-63
2022/03/26 06:26:51;;;;;;;59.23;31.63;;;5.60;99.90;;;;;;5071119;28;20559;-61
2022/03/26 06:29:17;;;;;;;55.67;29.00;;;;;;;;;;5071408;28;20205;-61
2022/03/26 06:31:44;;;;;;;60.73;31.43;;;;;;;;;;5071306;28;20193;-64
2022/03/26 06:34:11;;;;;;;64.07;30.50;;;;;;;;;;5071330;28;20193;-64
2022/03/26 06:36:37;;;;;;;54.53;30.47;;;6.30;99.90;;;;;;5070939;28;20170;-63
2022/03/26 06:39:06;;;;;;;50.50;29.87;;;6.90;99.90;;;;;;5071522;28;20184;-63
2022/03/26 06:41:32;;;;;;;54.10;31.20;;;;;;;;;;5071390;28;20273;-61
2022/03/26 06:43:57;;;;;;;53.50;31.57;;;6.70;99.90;;;;;;5071479;28;20540;-63
2022/03/26 06:46:23;;;;;;;55.20;31.00;;;7.10;99.90;;;;;;5070903;28;20170;-64
2022/03/26 06:48:48;;;;;;;53.63;30.70;;;7.30;99.90;;;;;;5072138;28;20204;-63
2022/03/26 06:51:14;;;;;;;55.10;29.97;;;;;;;;;;5084165;28;20174;-65
2022/03/26 06:53:40;;;;;;;52.47;30.07;;;;;;;;;;5070809;28;20220;-65
2022/03/26 06:56:07;;;;;;;45.70;27.33;;;8.80;99.90;;;;;;5070734;28;20273;-64
2022/03/26 06:58:34;;;;;;;50.30;26.30;;;9.50;99.90;;;;;;5071111;28;20257;-64
2022/03/26 07:01:00;;;;;;;47.03;28.13;;;10.00;99.90;;;;;;5070440;28;20231;-65
2022/03/26 07:03:26;;;;;;;44.63;26.83;;;;;;;;;;5070406;28;20593;-64
2022/03/26 07:05:52;;;;;;;48.30;28.87;;;;;;;;;;5070251;28;20571;-65
2022/03/26 07:08:18;;;;;;;42.03;24.90;;;12.00;99.90;;;;;;5069757;28;20273;-65
2022/03/26 07:10:47;;;;;;;41.57;26.33;;;12.40;99.90;;;;;;5069748;28;20201;-65
2022/03/26 07:13:14;;;;;;;44.97;26.83;;;13.00;99.90;;;;;;5074508;28;20198;-64
2022/03/26 07:15:41;;;;;;;45.07;25.77;;;13.50;99.90;;;;;;5074207;28;20186;-67
2022/03/26 07:18:07;;;;;;;37.73;24.93;;;;;;;;;;5073615;28;20269;-63
2022/03/26 07:20:33;;;;;;;38.47;25.43;;;;;;;;;;5074311;28;20182;-63
2022/03/26 07:22:59;;;;;;;37.13;24.60;;;;;;;;;;5074878;28;20182;-64
2022/03/26 07:25:25;;;;;;;43.37;26.80;;;;;;;;;;5074215;28;20281;-65
2022/03/26 07:27:51;;;;;;;33.27;25.30;;;;;;;;;;5074348;28;20687;-65
2022/03/26 07:30:17;;;;;;;36.83;25.20;;;;;;;;;;5073873;28;20300;-64
2022/03/26 07:32:43;;;;;;;42.47;25.67;;;;;;;;;;5074181;28;20288;-64
2022/03/26 07:35:09;;;;;;;36.17;25.87;;;16.50;99.90;;;;;;5073651;28;20296;-66
2022/03/26 07:37:35;;;;;;;41.77;25.97;;;16.70;99.90;;;;;;5074191;28;20272;-64
2022/03/26 07:40:01;;;;;;;40.03;26.27;;;16.50;99.90;;;;;;5073917;28;20262;-65
2022/03/26 07:42:27;;;;;;;43.53;26.13;;;16.40;99.90;;;;;;5074239;28;20548;-66
2022/03/26 07:44:53;;;;;;;38.90;25.30;;;16.50;99.90;;;;;;5073933;28;20275;-66
2022/03/26 07:47:18;;;;;;;42.87;27.47;;;16.10;99.90;;;;;;5074467;28;20170;-66
2022/03/26 07:49:45;;;;;;;40.93;28.57;;;15.80;99.90;;;;;;5073804;28;20194;-66
2022/03/26 07:52:10;;;;;;;39.10;27.17;;;15.80;99.90;;;;;;5074491;28;20704;-66
2022/03/26 07:54:37;;;;;;;38.57;26.33;;;;;;;;;;5073484;28;20202;-65
2022/03/26 07:57:02;;;;;;;39.50;26.63;;;16.40;99.90;;;;;;5075038;28;20609;-65
2022/03/26 07:59:28;;;;;;;46.23;28.03;;;16.70;99.90;;;;;;5074571;28;20235;-65
2022/03/26 08:01:54;;;;;;;41.50;28.23;;;;;;;;;;5074777;28;20623;-65
2022/03/26 08:04:20;;;;;;;39.08;26.85;;;;;;;;;;5073302;28;20646;-65
2022/03/26 08:06:46;;;;;;;40.05;28.13;;;;;;;;;;5073486;28;20217;-64
2022/03/26 08:09:12;;;;;;;43.95;27.45;;;;;;;;;;5073829;28;20289;-64
2022/03/26 08:11:38;;;;;;;41.97;27.75;;;18.40;99.90;;;;;;5073504;28;20182;-64
2022/03/26 08:14:03;;;;;;;43.35;27.92;;;18.60;99.90;;;;;;5074009;28;20240;-66
2022/03/26 08:16:29;;;;;;;43.83;29.52;;;18.80;99.90;;;;;;5073580;28;20182;-65
2022/03/26 08:18:55;;;;;;;40.40;25.48;;;19.00;99.90;;;;;;5074210;28;20178;-65
2022/03/26 08:21:20;;;;;;;39.00;27.23;;;19.10;99.90;;;;;;5073673;28;20235;-65
2022/03/26 08:23:46;;;;;;;36.17;25.90;;;19.50;99.90;;;;;;5073278;28;20714;-66
2022/03/26 08:26:33;;;;;;;37.75;26.13;;;19.80;99.90;;;;;;5073105;28;20182;-66
2022/03/26 08:29:00;;;;;;;39.22;26.65;;;20.50;99.90;;;;;;5072943;28;20566;-66
2022/03/26 08:31:28;;;;;;;41.83;28.08;;;21.00;99.90;;;;;;5073315;28;20175;-66
2022/03/26 08:33:54;;;;;;;40.00;27.95;;;21.10;99.90;;;;;;5073441;28;20257;-66
2022/03/26 08:36:20;;;;;;;40.65;26.50;;;21.40;99.90;;;;;;5073191;28;20308;-66
2022/03/26 08:38:48;;;;;;;40.45;26.88;;;22.00;99.90;;;;;;5073178;28;20632;-66
2022/03/26 08:41:21;;;;;;;38.95;25.15;;;22.00;99.90;;;;;;5073865;28;20182;-65
2022/03/26 08:43:50;;;;;;;37.70;26.30;;;21.90;95.80;;;;;;5073012;28;20191;-64
2022/03/26 08:46:16;;;;;;;40.15;26.10;;;22.10;97.60;;;;;;5072926;28;20236;-65
2022/03/26 08:48:41;;;;;;;40.17;25.83;;;22.40;99.90;;;;;;5073154;28;20204;-64
2022/03/26 08:51:07;;;;;;;34.17;24.30;;;22.70;99.90;;;;;;5072912;28;20206;-65
2022/03/26 08:53:33;;;;;;;39.30;25.33;;;22.90;99.90;;;;;;5072986;28;20178;-64
2022/03/26 08:55:59;;;;;;;33.33;23.63;;;23.10;99.90;;;;;;5072443;28;20181;-65
2022/03/26 08:58:25;;;;;;;37.88;25.58;;;23.00;91.60;;;;;;5071893;28;20174;-64
2022/03/26 09:00:52;;;;;;;34.30;25.35;;;23.40;91.60;;;;;;5075417;28;20616;-64
2022/03/26 09:03:20;;;;;;;50.53;29.08;;;23.50;92.20;;;;;;5072061;28;20628;-66
2022/03/26 09:05:50;;;;;;;33.20;25.85;;;23.50;91.70;;;;;;5071543;28;20208;-65
2022/03/26 09:08:16;;;;;;;37.33;26.95;;;23.50;90.40;;;;;;5050904;28;20643;-64
2022/03/26 09:10:42;;;;;;;36.78;26.38;;;23.60;90.50;;;;;;5052559;28;20229;-66
2022/03/26 09:13:08;;;;;;;39.55;26.92;;;23.40;89.60;;;;;;5072701;28;20600;-64
2022/03/26 09:15:34;;;;;;;35.03;25.58;;;23.30;88.00;;;;;;5072241;28;20193;-65
2022/03/26 09:18:02;;;;;;;37.20;24.55;;;23.30;86.40;;;;;;5072200;28;20289;-65
2022/03/26 09:20:28;;;;;;;44.42;26.05;;;23.20;87.10;;;;;;5072321;28;20174;-65
2022/03/26 09:22:54;;;;;;;39.55;25.75;;;23.20;85.20;;;;;;5071848;28;20193;-64
2022/03/26 09:25:20;;;;;;;41.10;24.33;;;23.40;86.90;;;;;;5071978;28;20698;-64
2022/03/26 09:27:47;;;;;;;33.78;23.85;;;23.70;86.80;;;;;;5072423;28;20204;-65
2022/03/26 09:30:15;;;;;;;35.53;23.95;;;24.10;84.80;;;;;;5072116;28;20202;-65
2022/03/26 09:32:40;;;;;;;41.50;24.92;;;24.40;80.80;;;;;;5072061;28;20178;-65
2022/03/26 09:35:07;;;;;;;36.08;25.00;;;24.20;80.40;;;;;;5070804;28;20202;-65
2022/03/26 09:37:32;;;;;;;38.67;24.50;;;23.90;81.40;;;;;;5072332;28;20182;-65
2022/03/26 09:39:58;;;;;;;38.25;24.73;;;23.60;81.60;;;;;;5072017;28;20181;-65
2022/03/26 09:42:26;;;;;;;38.38;25.17;;;23.30;80.30;;;;;;5072025;28;20178;-65
2022/03/26 09:44:52;;;;;;;36.20;23.15;;;22.90;82.20;;;;;;5071247;28;20227;-65
2022/03/26 09:47:17;;;;;;;33.35;24.20;;;23.20;86.50;;;;;;5072510;28;20202;-65
2022/03/26 09:49:43;;;;;;;34.05;22.98;;;23.50;83.10;;;;;;5071502;28;20613;-65
2022/03/26 09:52:09;;;;;;;31.38;23.27;;;23.70;83.10;;;;;;5072323;28;20538;-64
2022/03/26 09:54:36;;;;;;;36.92;24.85;;;24.10;82.30;;;;;;5071530;28;20190;-65
2022/03/26 10:02:58;;;;;;;36.92;27.45;;;24.60;79.60;;;;;;5109373;27;20471;-63
2022/03/26 10:05:34;;;;;;;38.72;26.55;;;23.80;78.80;;;;;;5108368;28;20204;-64
2022/03/26 10:08:19;;;;;;;48.35;28.42;;;23.70;83.00;;;;;;5109344;28;20239;-64
2022/03/26 10:10:45;;;;;;;38.58;28.50;;;23.90;82.40;;;;;;5091005;28;20177;-64
2022/03/26 10:13:12;;;;;;;39.35;27.27;;;24.50;86.40;;;;;;5088927;28;20161;-65
2022/03/26 10:16:06;;;;;;;37.97;28.17;;;25.20;86.30;;;;;;5095868;28;20673;-65
2022/03/26 10:18:39;;;;;;;41.17;28.23;;;25.40;79.80;;;;;;5088929;28;20188;-65
2022/03/26 10:21:13;;;;;;;39.35;27.00;;;25.10;78.00;;;;;;5107926;28;20230;-65
2022/03/26 10:23:42;;;;;;;38.42;28.05;;;24.80;79.00;;;;;;5109172;28;20226;-65
2022/03/26 10:26:11;;;;;;;39.42;27.65;;;24.90;82.20;;;;;;5089643;27;20674;-65
2022/03/26 10:28:37;;;;;;;38.25;27.00;;;24.90;76.70;;;;;;5099406;28;20234;-65
2022/03/26 10:34:12;;;;;;;35.55;26.92;;;25.50;76.20;;;;;;5095554;28;20658;-65
2022/03/26 10:36:43;;;;;;;34.88;25.75;;;25.60;81.40;;;;;;5088195;28;20209;-64
2022/03/26 10:39:21;;;;;;;35.75;26.13;;;25.80;73.40;;;;;;5102009;28;20538;-67
2022/03/26 10:41:49;;;;;;;38.90;25.90;;;25.60;75.40;;;;;;5108665;28;20232;-64
2022/03/26 10:44:19;;;;;;;34.97;26.52;;;25.70;72.90;;;;;;5094199;28;20185;-65
2022/03/26 10:46:52;;;;;;;39.78;26.85;;;25.40;74.50;;;;;;5087995;28;20165;-64
2022/03/26 10:49:30;;;;;;;36.38;25.58;;;25.60;69.60;;;;;;5102493;28;20200;-65
2022/03/26 10:51:57;;;;;;;32.67;25.30;;;25.60;73.40;;;;;;5108751;28;20247;-65
2022/03/26 10:54:31;;;;;;;31.80;22.48;;;25.70;70.50;;;;;;5106892;28;20213;-65
2022/03/26 10:56:58;;;;;;;32.20;22.38;;;25.60;70.60;;;;;;5094130;28;20174;-64
2022/03/26 10:59:25;;;;;;;34.40;22.05;;;25.30;66.30;;;;;;5088101;28;20235;-65
2022/03/26 11:01:51;;;;;;;29.60;22.25;;;25.20;65.40;;;;;;5099435;28;20560;-64
2022/03/26 11:04:18;;;;;;;32.85;23.70;;;25.00;67.80;;;;;;5108354;28;20224;-65
2022/03/26 11:06:45;;;;;;;29.13;22.25;;;25.20;68.50;;;;;;5097284;28;20173;-64
2022/03/26 11:09:11;;;;;;;33.58;22.67;;;25.00;66.40;;;;;;5087886;28;20234;-65
2022/03/26 11:11:37;;;;;;;32.15;23.50;;;25.50;68.00;;;;;;5096522;28;20184;-64
2022/03/26 11:14:10;;;;;;;30.70;21.35;;;25.90;66.20;;;;;;5095913;28;20197;-65
2022/03/26 11:16:47;;;;;;;27.80;20.30;;;25.40;64.00;;;;;;5085730;28;20205;-65
2022/03/26 11:19:19;;;;;;;26.05;20.38;;;25.30;65.20;;;;;;5074418;28;20174;-64
2022/03/26 11:21:56;;;;;;;33.67;21.90;;;25.10;63.60;;;;;;5082370;28;20236;-65
2022/03/26 11:24:43;;;;;;;35.55;20.95;;;24.90;61.90;;;;;;5094482;28;20200;-65
2022/03/26 11:27:17;;;;;;;29.80;20.67;;;24.70;63.50;;;;;;5082563;28;20540;-65
2022/03/26 11:30:03;;;;;;;30.90;21.38;;;24.80;64.90;;;;;;5074183;28;20220;-65
2022/03/26 11:32:43;;;;;;;30.60;20.83;;;24.90;61.60;;;;;;5087172;28;20566;-65
2022/03/26 11:35:11;;;;;;;32.63;20.92;;;24.60;64.10;;;;;;5093911;28;20220;-65
2022/03/26 11:37:50;;;;;;;28.50;20.38;;;24.50;61.70;;;;;;5080027;28;20653;-65
2022/03/26 11:40:43;;;;;;;33.40;22.98;;;24.30;63.20;;;;;;5073604;28;20185;-65
2022/03/26 11:43:14;;;;;;;28.13;20.33;;;24.20;64.40;;;;;;5091262;28;20649;-65
2022/03/26 11:51:24;;;;;;;32.33;19.02;;;24.30;62.50;;;;;;5075105;28;20184;-65
2022/03/26 11:53:58;;;;;;;29.02;18.95;;;24.10;62.50;;;;;;5093486;28;20277;-64
2022/03/26 11:56:27;;;;;;;25.52;17.27;;;24.10;64.10;;;;;;5092127;28;20658;-65
2022/03/26 11:59:16;;;;;;;24.23;17.90;;;24.40;66.10;;;;;;5072881;28;20174;-65
2022/03/26 12:01:49;;;;;;;29.05;17.45;;;24.60;63.90;;;;;;5076122;28;20197;-64
2022/03/26 12:04:45;;;;;;;22.17;16.85;;;24.50;63.20;;;;;;5093430;28;20282;-65
2022/03/26 12:07:15;;;;;;;23.40;16.13;;;24.10;62.10;;;;;;5085926;28;20166;-65
2022/03/26 12:09:41;;;;;;;24.98;15.57;;;24.10;62.50;;;;;;5073453;28;20170;-64
2022/03/26 12:12:13;;;;;;;22.33;15.20;;;24.00;63.20;;;;;;5078370;28;20700;-64
2022/03/26 12:15:01;;;;;;;22.25;14.10;;;24.50;66.50;;;;;;5089424;28;20675;-64
2022/03/26 12:17:46;;;;;;;21.05;14.52;;;24.60;59.70;;;;;;5073392;28;20198;-64
2022/03/26 12:20:22;;;;;;;22.85;13.50;;;24.30;60.20;;;;;;5080045;28;20211;-65
2022/03/26 12:23:11;;;;;;;17.98;14.93;;;23.80;59.20;;;;;;5093028;28;20212;-64
2022/03/26 12:25:51;;;;;;;19.35;14.70;;;23.10;60.30;;;;;;5078847;28;20206;-65
2022/03/26 12:28:38;;;;;;;19.85;13.88;;;23.10;62.40;;;;;;5073126;28;20252;-67
2022/03/26 12:31:09;;;;;;;17.15;13.07;;;23.10;62.60;;;;;;5085861;28;20177;-67
2022/03/26 12:33:44;;;;;;;17.08;12.25;;;22.80;60.10;;;;;;5093431;28;20170;-65
2022/03/26 12:36:12;;;;;;;23.50;12.77;;;22.90;62.80;;;;;;5078912;28;20235;-64
2022/03/26 12:38:38;;;;;;;14.52;11.32;;;23.00;60.80;;;;;;5072711;28;20278;-65
2022/03/26 12:41:06;;;;;;;17.05;11.70;;;23.00;60.60;;;;;;5073388;28;20194;-65
2022/03/26 12:43:32;;;;;;;16.88;12.43;;;23.20;61.10;;;;;;5072702;28;20632;-65
2022/03/26 12:45:59;;;;;;;14.38;11.75;;;22.90;58.40;;;;;;5094912;28;20177;-64
2022/03/26 12:48:29;;;;;;;17.33;13.10;;;22.90;60.90;;;;;;5094141;28;20200;-65
2022/03/26 12:51:00;;;;;;;14.88;11.40;;;22.60;62.20;;;;;;5082590;28;20196;-65
2022/03/26 12:53:36;;;;;;;14.85;12.75;;;22.30;60.60;;;;;;5072537;28;20574;-64
2022/03/26 12:56:03;;;;;;;25.48;13.65;;;22.20;61.00;;;;;;5082274;28;20604;-64
2022/03/26 13:01:14;;;;;;;16.23;11.77;;;22.50;61.20;;;;;;5081200;28;20271;-65
2022/03/26 13:03:41;;;;;;;16.27;11.68;;;22.50;62.00;;;;;;5072150;28;20261;-64
2022/03/26 13:06:11;;;;;;;15.73;12.55;;;22.60;65.30;;;;;;5081354;28;20251;-64
2022/03/26 13:08:37;;;;;;;16.63;12.00;;;22.70;63.00;;;;;;5086087;28;20178;-65
2022/03/26 13:11:07;;;;;;;15.07;11.90;;;22.80;62.80;;;;;;5072013;28;20214;-64
2022/03/26 13:13:43;;;;;;;13.13;11.20;;;22.50;63.30;;;;;;5077262;28;20680;-64
2022/03/26 13:16:13;;;;;;;14.10;11.32;;;22.60;65.00;;;;;;5091974;28;20173;-64